sensor_id;sensor_type;location;lat;lon;timestamp;P1;durP1;ratioP1;P2;durP2;ratioP2
26014;SDS011;13793;55.388;37.844;2023-02-03T00:01:03;75.13;;;33.47;;
26014;SDS011;13793;55.388;37.844;2023-02-03T00:03:34;68.33;;;30.70;;
26014;SDS011;13793;55.388;37.844;2023-02-03T00:06:04;71.00;;;31.17;;
26014;SDS011;13793;55.388;37.844;2023-02-03T00:08:36;69.87;;;32.03;;
26014;SDS011;13793;55.388;37.844;2023-02-03T00:11:07;68.40;;;32.43;;
26014;SDS011;13793;55.388;37.844;2023-02-03T00:13:37;73.23;;;32.67;;
26014;SDS011;13793;55.388;37.844;2023-02-03T00:16:07;74.13;;;31.47;;
26014;SDS011;13793;55.388;37.844;2023-02-03T00:18:38;65.83;;;31.80;;
26014;SDS011;13793;55.388;37.844;2023-02-03T00:21:09;70.17;;;31.83;;
26014;SDS011;13793;55.388;37.844;2023-02-03T00:23:41;70.07;;;31.67;;
26014;SDS011;13793;55.388;37.844;2023-02-03T00:26:12;72.87;;;31.87;;
26014;SDS011;13793;55.388;37.844;2023-02-03T00:28:45;73.93;;;33.03;;
26014;SDS011;13793;55.388;37.844;2023-02-03T00:31:20;72.70;;;33.00;;
26014;SDS011;13793;55.388;37.844;2023-02-03T00:33:52;73.83;;;32.77;;
26014;SDS011;13793;55.388;37.844;2023-02-03T00:36:24;68.47;;;32.00;;
26014;SDS011;13793;55.388;37.844;2023-02-03T00:38:55;70.90;;;30.63;;
26014;SDS011;13793;55.388;37.844;2023-02-03T00:41:27;72.27;;;32.13;;
26014;SDS011;13793;55.388;37.844;2023-02-03T00:43:59;68.33;;;30.63;;
26014;SDS011;13793;55.388;37.844;2023-02-03T00:46:29;67.73;;;31.40;;
26014;SDS011;13793;55.388;37.844;2023-02-03T00:49:00;68.43;;;31.00;;
26014;SDS011;13793;55.388;37.844;2023-02-03T00:51:32;69.73;;;32.40;;
26014;SDS011;13793;55.388;37.844;2023-02-03T00:54:03;75.70;;;34.20;;
26014;SDS011;13793;55.388;37.844;2023-02-03T00:56:33;69.20;;;31.53;;
26014;SDS011;13793;55.388;37.844;2023-02-03T00:59:03;71.57;;;33.20;;
26014;SDS011;13793;55.388;37.844;2023-02-03T01:01:34;69.83;;;32.37;;
26014;SDS011;13793;55.388;37.844;2023-02-03T01:04:05;72.23;;;32.80;;
26014;SDS011;13793;55.388;37.844;2023-02-03T01:06:35;77.87;;;33.60;;
26014;SDS011;13793;55.388;37.844;2023-02-03T01:09:06;76.03;;;33.83;;
26014;SDS011;13793;55.388;37.844;2023-02-03T01:11:36;74.93;;;32.33;;
26014;SDS011;13793;55.388;37.844;2023-02-03T01:14:08;77.13;;;33.93;;
26014;SDS011;13793;55.388;37.844;2023-02-03T01:16:39;81.13;;;34.77;;
26014;SDS011;13793;55.388;37.844;2023-02-03T01:19:09;74.23;;;33.67;;
26014;SDS011;13793;55.388;37.844;2023-02-03T01:21:40;79.10;;;34.30;;
26014;SDS011;13793;55.388;37.844;2023-02-03T01:24:11;75.00;;;33.67;;
26014;SDS011;13793;55.388;37.844;2023-02-03T01:26:42;73.13;;;34.17;;
26014;SDS011;13793;55.388;37.844;2023-02-03T01:29:13;76.20;;;33.47;;
26014;SDS011;13793;55.388;37.844;2023-02-03T01:31:43;77.77;;;33.73;;
26014;SDS011;13793;55.388;37.844;2023-02-03T01:34:14;78.20;;;32.80;;
26014;SDS011;13793;55.388;37.844;2023-02-03T01:36:46;76.70;;;33.40;;
26014;SDS011;13793;55.388;37.844;2023-02-03T01:39:16;79.57;;;34.57;;
26014;SDS011;13793;55.388;37.844;2023-02-03T01:41:47;79.63;;;34.50;;
26014;SDS011;13793;55.388;37.844;2023-02-03T01:47:28;72.20;;;33.37;;
26014;SDS011;13793;55.388;37.844;2023-02-03T01:50:08;72.27;;;33.00;;
26014;SDS011;13793;55.388;37.844;2023-02-03T01:52:40;79.23;;;34.23;;
26014;SDS011;13793;55.388;37.844;2023-02-03T01:55:12;83.97;;;34.43;;
26014;SDS011;13793;55.388;37.844;2023-02-03T01:57:46;75.77;;;33.37;;
26014;SDS011;13793;55.388;37.844;2023-02-03T02:00:21;80.93;;;34.00;;
26014;SDS011;13793;55.388;37.844;2023-02-03T02:02:51;76.57;;;33.90;;
26014;SDS011;13793;55.388;37.844;2023-02-03T02:05:30;78.03;;;32.77;;
26014;SDS011;13793;55.388;37.844;2023-02-03T02:08:07;74.73;;;33.47;;
26014;SDS011;13793;55.388;37.844;2023-02-03T02:10:38;74.63;;;32.60;;
26014;SDS011;13793;55.388;37.844;2023-02-03T02:13:09;80.27;;;34.63;;
26014;SDS011;13793;55.388;37.844;2023-02-03T02:15:52;73.60;;;32.77;;
26014;SDS011;13793;55.388;37.844;2023-02-03T02:18:47;80.13;;;34.37;;
26014;SDS011;13793;55.388;37.844;2023-02-03T02:40:34;81.07;;;33.63;;
26014;SDS011;13793;55.388;37.844;2023-02-03T02:43:24;78.13;;;35.03;;
26014;SDS011;13793;55.388;37.844;2023-02-03T02:46:00;77.17;;;34.08;;
26014;SDS011;13793;55.388;37.844;2023-02-03T02:48:34;88.93;;;36.00;;
26014;SDS011;13793;55.388;37.844;2023-02-03T02:51:14;76.20;;;35.07;;
26014;SDS011;13793;55.388;37.844;2023-02-03T02:53:46;76.47;;;33.70;;
26014;SDS011;13793;55.388;37.844;2023-02-03T02:56:24;78.77;;;33.23;;
26014;SDS011;13793;55.388;37.844;2023-02-03T02:58:57;81.43;;;35.17;;
26014;SDS011;13793;55.388;37.844;2023-02-03T03:01:29;80.50;;;35.67;;
26014;SDS011;13793;55.388;37.844;2023-02-03T03:04:00;82.10;;;34.47;;
26014;SDS011;13793;55.388;37.844;2023-02-03T03:06:39;78.37;;;33.57;;
26014;SDS011;13793;55.388;37.844;2023-02-03T03:09:29;84.47;;;35.60;;
26014;SDS011;13793;55.388;37.844;2023-02-03T03:12:12;84.83;;;35.93;;
26014;SDS011;13793;55.388;37.844;2023-02-03T03:14:52;81.87;;;33.67;;
26014;SDS011;13793;55.388;37.844;2023-02-03T03:17:25;93.70;;;36.43;;
26014;SDS011;13793;55.388;37.844;2023-02-03T03:20:01;85.37;;;35.30;;
26014;SDS011;13793;55.388;37.844;2023-02-03T03:22:35;89.73;;;37.63;;
26014;SDS011;13793;55.388;37.844;2023-02-03T03:25:23;87.53;;;36.80;;
26014;SDS011;13793;55.388;37.844;2023-02-03T03:27:55;91.10;;;37.03;;
26014;SDS011;13793;55.388;37.844;2023-02-03T03:30:24;93.27;;;38.33;;
26014;SDS011;13793;55.388;37.844;2023-02-03T03:33:04;91.07;;;36.63;;
26014;SDS011;13793;55.388;37.844;2023-02-03T03:38:31;86.47;;;35.23;;
26014;SDS011;13793;55.388;37.844;2023-02-03T03:41:04;88.00;;;37.63;;
26014;SDS011;13793;55.388;37.844;2023-02-03T03:43:37;88.30;;;36.90;;
26014;SDS011;13793;55.388;37.844;2023-02-03T03:48:53;93.47;;;36.90;;
26014;SDS011;13793;55.388;37.844;2023-02-03T03:51:27;87.70;;;36.30;;
26014;SDS011;13793;55.388;37.844;2023-02-03T03:54:01;88.83;;;35.13;;
26014;SDS011;13793;55.388;37.844;2023-02-03T03:56:41;85.70;;;34.73;;
26014;SDS011;13793;55.388;37.844;2023-02-03T03:59:13;87.90;;;36.43;;
26014;SDS011;13793;55.388;37.844;2023-02-03T04:01:46;94.83;;;38.03;;
26014;SDS011;13793;55.388;37.844;2023-02-03T04:04:17;88.73;;;34.97;;
26014;SDS011;13793;55.388;37.844;2023-02-03T04:06:48;90.73;;;36.80;;
26014;SDS011;13793;55.388;37.844;2023-02-03T04:09:21;82.97;;;34.63;;
26014;SDS011;13793;55.388;37.844;2023-02-03T04:11:51;90.93;;;36.83;;
26014;SDS011;13793;55.388;37.844;2023-02-03T04:14:32;90.30;;;35.57;;
26014;SDS011;13793;55.388;37.844;2023-02-03T04:17:05;96.43;;;36.37;;
26014;SDS011;13793;55.388;37.844;2023-02-03T04:19:36;91.67;;;36.77;;
26014;SDS011;13793;55.388;37.844;2023-02-03T04:22:07;86.73;;;36.33;;
26014;SDS011;13793;55.388;37.844;2023-02-03T04:24:37;87.90;;;35.27;;
26014;SDS011;13793;55.388;37.844;2023-02-03T04:27:08;86.77;;;36.30;;
26014;SDS011;13793;55.388;37.844;2023-02-03T04:29:39;87.90;;;35.10;;
26014;SDS011;13793;55.388;37.844;2023-02-03T04:32:09;83.63;;;34.70;;
26014;SDS011;13793;55.388;37.844;2023-02-03T04:34:40;89.77;;;36.67;;
26014;SDS011;13793;55.388;37.844;2023-02-03T04:37:10;91.27;;;36.20;;
26014;SDS011;13793;55.388;37.844;2023-02-03T04:39:41;89.27;;;35.70;;
26014;SDS011;13793;55.388;37.844;2023-02-03T04:42:11;83.63;;;35.20;;
26014;SDS011;13793;55.388;37.844;2023-02-03T04:44:42;89.63;;;34.37;;
26014;SDS011;13793;55.388;37.844;2023-02-03T04:47:12;88.03;;;36.03;;
26014;SDS011;13793;55.388;37.844;2023-02-03T04:49:43;85.47;;;33.97;;
26014;SDS011;13793;55.388;37.844;2023-02-03T04:52:14;91.57;;;37.77;;
26014;SDS011;13793;55.388;37.844;2023-02-03T04:54:45;83.97;;;34.13;;
26014;SDS011;13793;55.388;37.844;2023-02-03T04:57:15;91.23;;;35.43;;
26014;SDS011;13793;55.388;37.844;2023-02-03T04:59:46;85.70;;;34.80;;
26014;SDS011;13793;55.388;37.844;2023-02-03T05:02:16;90.50;;;35.93;;
26014;SDS011;13793;55.388;37.844;2023-02-03T05:04:47;88.53;;;36.90;;
26014;SDS011;13793;55.388;37.844;2023-02-03T05:07:17;91.23;;;36.83;;
26014;SDS011;13793;55.388;37.844;2023-02-03T05:09:48;84.70;;;33.83;;
26014;SDS011;13793;55.388;37.844;2023-02-03T05:12:18;89.67;;;35.30;;
26014;SDS011;13793;55.388;37.844;2023-02-03T05:14:49;89.17;;;34.93;;
26014;SDS011;13793;55.388;37.844;2023-02-03T05:17:20;93.37;;;37.30;;
26014;SDS011;13793;55.388;37.844;2023-02-03T05:19:51;95.60;;;35.57;;
26014;SDS011;13793;55.388;37.844;2023-02-03T05:22:21;97.00;;;36.67;;
26014;SDS011;13793;55.388;37.844;2023-02-03T05:24:52;94.07;;;36.27;;
26014;SDS011;13793;55.388;37.844;2023-02-03T05:27:22;99.00;;;36.00;;
26014;SDS011;13793;55.388;37.844;2023-02-03T05:29:53;97.87;;;36.67;;
26014;SDS011;13793;55.388;37.844;2023-02-03T05:32:24;101.50;;;35.70;;
26014;SDS011;13793;55.388;37.844;2023-02-03T05:34:54;99.17;;;34.00;;
26014;SDS011;13793;55.388;37.844;2023-02-03T05:37:25;104.93;;;35.10;;
26014;SDS011;13793;55.388;37.844;2023-02-03T05:39:56;111.00;;;38.53;;
26014;SDS011;13793;55.388;37.844;2023-02-03T05:42:28;112.73;;;35.50;;
26014;SDS011;13793;55.388;37.844;2023-02-03T05:44:59;109.03;;;38.30;;
26014;SDS011;13793;55.388;37.844;2023-02-03T05:47:30;110.93;;;37.33;;
26014;SDS011;13793;55.388;37.844;2023-02-03T05:50:01;121.40;;;39.20;;
26014;SDS011;13793;55.388;37.844;2023-02-03T05:52:32;113.77;;;37.23;;
26014;SDS011;13793;55.388;37.844;2023-02-03T05:55:03;113.30;;;38.47;;
26014;SDS011;13793;55.388;37.844;2023-02-03T05:57:34;115.47;;;37.50;;
26014;SDS011;13793;55.388;37.844;2023-02-03T06:00:05;113.30;;;37.63;;
26014;SDS011;13793;55.388;37.844;2023-02-03T06:02:40;110.10;;;38.70;;
26014;SDS011;13793;55.388;37.844;2023-02-03T06:05:10;119.67;;;37.83;;
26014;SDS011;13793;55.388;37.844;2023-02-03T06:07:41;120.63;;;37.40;;
26014;SDS011;13793;55.388;37.844;2023-02-03T06:10:12;115.27;;;36.87;;
26014;SDS011;13793;55.388;37.844;2023-02-03T06:12:43;114.27;;;36.97;;
26014;SDS011;13793;55.388;37.844;2023-02-03T06:15:14;116.47;;;38.00;;
26014;SDS011;13793;55.388;37.844;2023-02-03T06:17:45;106.97;;;35.60;;
26014;SDS011;13793;55.388;37.844;2023-02-03T06:20:17;109.10;;;37.77;;
26014;SDS011;13793;55.388;37.844;2023-02-03T06:22:49;106.37;;;36.10;;
26014;SDS011;13793;55.388;37.844;2023-02-03T06:25:19;108.50;;;36.57;;
26014;SDS011;13793;55.388;37.844;2023-02-03T06:27:51;106.50;;;36.57;;
26014;SDS011;13793;55.388;37.844;2023-02-03T06:30:22;100.63;;;34.30;;
26014;SDS011;13793;55.388;37.844;2023-02-03T06:32:53;94.30;;;33.93;;
26014;SDS011;13793;55.388;37.844;2023-02-03T06:35:24;94.23;;;33.37;;
26014;SDS011;13793;55.388;37.844;2023-02-03T06:37:55;89.97;;;33.23;;
26014;SDS011;13793;55.388;37.844;2023-02-03T06:40:25;92.40;;;33.33;;
26014;SDS011;13793;55.388;37.844;2023-02-03T06:42:56;93.83;;;32.97;;
26014;SDS011;13793;55.388;37.844;2023-02-03T06:45:27;82.90;;;30.90;;
26014;SDS011;13793;55.388;37.844;2023-02-03T06:47:57;84.73;;;32.93;;
26014;SDS011;13793;55.388;37.844;2023-02-03T06:50:28;84.93;;;32.77;;
26014;SDS011;13793;55.388;37.844;2023-02-03T06:52:59;79.10;;;32.13;;
26014;SDS011;13793;55.388;37.844;2023-02-03T06:55:29;74.03;;;30.90;;
26014;SDS011;13793;55.388;37.844;2023-02-03T06:58:00;76.10;;;30.67;;
26014;SDS011;13793;55.388;37.844;2023-02-03T07:00:31;79.33;;;32.17;;
26014;SDS011;13793;55.388;37.844;2023-02-03T07:03:02;81.47;;;31.13;;
26014;SDS011;13793;55.388;37.844;2023-02-03T07:05:33;71.43;;;29.40;;
26014;SDS011;13793;55.388;37.844;2023-02-03T07:08:04;76.00;;;30.57;;
26014;SDS011;13793;55.388;37.844;2023-02-03T07:10:35;74.43;;;29.97;;
26014;SDS011;13793;55.388;37.844;2023-02-03T07:13:06;71.70;;;29.37;;
26014;SDS011;13793;55.388;37.844;2023-02-03T07:15:36;68.57;;;29.30;;
26014;SDS011;13793;55.388;37.844;2023-02-03T07:18:07;67.13;;;29.87;;
26014;SDS011;13793;55.388;37.844;2023-02-03T07:20:38;66.83;;;28.67;;
26014;SDS011;13793;55.388;37.844;2023-02-03T07:23:08;66.13;;;27.93;;
26014;SDS011;13793;55.388;37.844;2023-02-03T07:25:39;57.20;;;26.40;;
26014;SDS011;13793;55.388;37.844;2023-02-03T07:28:09;59.47;;;27.33;;
26014;SDS011;13793;55.388;37.844;2023-02-03T07:30:40;61.97;;;28.50;;
26014;SDS011;13793;55.388;37.844;2023-02-03T07:33:11;60.07;;;27.50;;
26014;SDS011;13793;55.388;37.844;2023-02-03T07:35:42;58.77;;;26.90;;
26014;SDS011;13793;55.388;37.844;2023-02-03T07:38:12;53.77;;;25.70;;
26014;SDS011;13793;55.388;37.844;2023-02-03T07:40:43;56.47;;;26.67;;
26014;SDS011;13793;55.388;37.844;2023-02-03T07:43:14;55.10;;;26.30;;
26014;SDS011;13793;55.388;37.844;2023-02-03T07:45:45;57.10;;;25.80;;
26014;SDS011;13793;55.388;37.844;2023-02-03T07:48:15;57.80;;;25.77;;
26014;SDS011;13793;55.388;37.844;2023-02-03T07:50:49;54.97;;;25.43;;
26014;SDS011;13793;55.388;37.844;2023-02-03T07:53:20;52.10;;;25.97;;
26014;SDS011;13793;55.388;37.844;2023-02-03T07:55:51;51.40;;;25.07;;
26014;SDS011;13793;55.388;37.844;2023-02-03T07:58:21;51.73;;;24.73;;
26014;SDS011;13793;55.388;37.844;2023-02-03T08:00:52;54.97;;;24.73;;
26014;SDS011;13793;55.388;37.844;2023-02-03T08:03:23;53.07;;;25.37;;
26014;SDS011;13793;55.388;37.844;2023-02-03T08:05:54;50.30;;;23.97;;
26014;SDS011;13793;55.388;37.844;2023-02-03T08:08:24;50.73;;;25.33;;
26014;SDS011;13793;55.388;37.844;2023-02-03T08:10:55;54.77;;;25.50;;
26014;SDS011;13793;55.388;37.844;2023-02-03T08:13:25;54.67;;;25.83;;
26014;SDS011;13793;55.388;37.844;2023-02-03T08:15:56;52.03;;;25.77;;
26014;SDS011;13793;55.388;37.844;2023-02-03T08:18:27;51.30;;;25.03;;
26014;SDS011;13793;55.388;37.844;2023-02-03T08:20:57;55.30;;;25.47;;
26014;SDS011;13793;55.388;37.844;2023-02-03T08:23:30;48.67;;;23.37;;
26014;SDS011;13793;55.388;37.844;2023-02-03T08:26:00;44.70;;;23.53;;
26014;SDS011;13793;55.388;37.844;2023-02-03T08:28:31;46.67;;;24.03;;
26014;SDS011;13793;55.388;37.844;2023-02-03T08:31:01;44.57;;;23.10;;
26014;SDS011;13793;55.388;37.844;2023-02-03T08:33:39;47.97;;;23.97;;
26014;SDS011;13793;55.388;37.844;2023-02-03T08:36:10;45.80;;;23.47;;
26014;SDS011;13793;55.388;37.844;2023-02-03T08:38:41;45.07;;;24.27;;
26014;SDS011;13793;55.388;37.844;2023-02-03T08:41:13;43.00;;;22.83;;
26014;SDS011;13793;55.388;37.844;2023-02-03T08:43:45;42.77;;;22.47;;
26014;SDS011;13793;55.388;37.844;2023-02-03T08:46:16;42.50;;;22.50;;
26014;SDS011;13793;55.388;37.844;2023-02-03T08:48:47;41.77;;;21.93;;
26014;SDS011;13793;55.388;37.844;2023-02-03T08:51:17;42.03;;;21.63;;
26014;SDS011;13793;55.388;37.844;2023-02-03T08:53:48;44.07;;;22.17;;
26014;SDS011;13793;55.388;37.844;2023-02-03T08:56:19;44.57;;;21.83;;
26014;SDS011;13793;55.388;37.844;2023-02-03T08:58:49;47.27;;;23.07;;
26014;SDS011;13793;55.388;37.844;2023-02-03T09:01:20;42.23;;;21.97;;
26014;SDS011;13793;55.388;37.844;2023-02-03T09:03:51;43.33;;;22.53;;
26014;SDS011;13793;55.388;37.844;2023-02-03T09:06:22;44.40;;;22.10;;
26014;SDS011;13793;55.388;37.844;2023-02-03T09:08:52;41.77;;;21.97;;
26014;SDS011;13793;55.388;37.844;2023-02-03T09:11:23;43.10;;;22.70;;
26014;SDS011;13793;55.388;37.844;2023-02-03T09:13:53;45.60;;;22.77;;
26014;SDS011;13793;55.388;37.844;2023-02-03T09:16:25;43.47;;;21.83;;
26014;SDS011;13793;55.388;37.844;2023-02-03T09:18:55;39.27;;;20.83;;
26014;SDS011;13793;55.388;37.844;2023-02-03T09:21:26;39.87;;;20.80;;
26014;SDS011;13793;55.388;37.844;2023-02-03T09:23:59;40.10;;;20.97;;
26014;SDS011;13793;55.388;37.844;2023-02-03T09:26:29;36.87;;;19.73;;
26014;SDS011;13793;55.388;37.844;2023-02-03T09:29:00;36.83;;;19.83;;
26014;SDS011;13793;55.388;37.844;2023-02-03T09:31:31;36.30;;;18.90;;
26014;SDS011;13793;55.388;37.844;2023-02-03T09:34:01;36.00;;;19.60;;
26014;SDS011;13793;55.388;37.844;2023-02-03T09:36:32;34.83;;;19.43;;
26014;SDS011;13793;55.388;37.844;2023-02-03T09:39:03;36.63;;;20.33;;
26014;SDS011;13793;55.388;37.844;2023-02-03T09:44:31;36.40;;;19.73;;
26014;SDS011;13793;55.388;37.844;2023-02-03T09:47:23;36.60;;;19.80;;
26014;SDS011;13793;55.388;37.844;2023-02-03T09:49:41;35.83;;;20.30;;
26014;SDS011;13793;55.388;37.844;2023-02-03T09:52:24;36.60;;;19.65;;
26014;SDS011;13793;55.388;37.844;2023-02-03T09:57:57;33.97;;;19.30;;
26014;SDS011;13793;55.388;37.844;2023-02-03T10:00:26;30.60;;;18.10;;
26014;SDS011;13793;55.388;37.844;2023-02-03T10:05:41;30.47;;;17.33;;
26014;SDS011;13793;55.388;37.844;2023-02-03T10:08:19;29.30;;;16.70;;
26014;SDS011;13793;55.388;37.844;2023-02-03T10:19:06;28.70;;;17.97;;
26014;SDS011;13793;55.388;37.844;2023-02-03T10:21:47;25.77;;;15.53;;
26014;SDS011;13793;55.388;37.844;2023-02-03T10:24:45;26.60;;;15.87;;
26014;SDS011;13793;55.388;37.844;2023-02-03T10:27:20;28.97;;;16.40;;
26014;SDS011;13793;55.388;37.844;2023-02-03T10:32:29;27.35;;;16.45;;
26014;SDS011;13793;55.388;37.844;2023-02-03T10:34:59;28.13;;;16.73;;
26014;SDS011;13793;55.388;37.844;2023-02-03T10:37:32;26.13;;;16.17;;
26014;SDS011;13793;55.388;37.844;2023-02-03T10:40:13;26.60;;;15.87;;
26014;SDS011;13793;55.388;37.844;2023-02-03T10:42:46;23.00;;;14.37;;
26014;SDS011;13793;55.388;37.844;2023-02-03T10:45:38;22.97;;;14.30;;
26014;SDS011;13793;55.388;37.844;2023-02-03T10:48:14;24.70;;;14.50;;
26014;SDS011;13793;55.388;37.844;2023-02-03T10:50:43;25.23;;;15.40;;
26014;SDS011;13793;55.388;37.844;2023-02-03T10:53:19;23.57;;;14.30;;
26014;SDS011;13793;55.388;37.844;2023-02-03T10:55:59;21.87;;;13.73;;
26014;SDS011;13793;55.388;37.844;2023-02-03T10:58:31;23.63;;;14.70;;
26014;SDS011;13793;55.388;37.844;2023-02-03T11:01:07;19.47;;;13.27;;
26014;SDS011;13793;55.388;37.844;2023-02-03T11:03:42;21.03;;;13.17;;
26014;SDS011;13793;55.388;37.844;2023-02-03T11:06:15;21.43;;;13.13;;
26014;SDS011;13793;55.388;37.844;2023-02-03T11:08:50;21.73;;;13.77;;
26014;SDS011;13793;55.388;37.844;2023-02-03T11:11:26;20.87;;;13.37;;
26014;SDS011;13793;55.388;37.844;2023-02-03T11:16:36;21.53;;;12.93;;
26014;SDS011;13793;55.388;37.844;2023-02-03T11:21:54;23.33;;;13.90;;
26014;SDS011;13793;55.388;37.844;2023-02-03T11:24:21;22.07;;;13.67;;
26014;SDS011;13793;55.388;37.844;2023-02-03T11:26:54;24.30;;;14.20;;
26014;SDS011;13793;55.388;37.844;2023-02-03T11:29:31;23.92;;;14.28;;
26014;SDS011;13793;55.388;37.844;2023-02-03T11:32:14;19.67;;;13.20;;
26014;SDS011;13793;55.388;37.844;2023-02-03T11:34:56;21.33;;;13.40;;
26014;SDS011;13793;55.388;37.844;2023-02-03T11:37:31;22.77;;;13.63;;
26014;SDS011;13793;55.388;37.844;2023-02-03T11:45:27;22.00;;;14.10;;
26014;SDS011;13793;55.388;37.844;2023-02-03T11:54:02;23.43;;;14.73;;
26014;SDS011;13793;55.388;37.844;2023-02-03T11:59:34;25.63;;;15.53;;
26014;SDS011;13793;55.388;37.844;2023-02-03T12:11:20;24.47;;;14.57;;
26014;SDS011;13793;55.388;37.844;2023-02-03T12:14:09;23.77;;;14.33;;
26014;SDS011;13793;55.388;37.844;2023-02-03T12:17:03;22.97;;;14.47;;
26014;SDS011;13793;55.388;37.844;2023-02-03T12:20:05;20.67;;;13.47;;
26014;SDS011;13793;55.388;37.844;2023-02-03T12:23:02;24.27;;;15.07;;
26014;SDS011;13793;55.388;37.844;2023-02-03T12:25:53;23.07;;;15.10;;
26014;SDS011;13793;55.388;37.844;2023-02-03T12:31:15;26.83;;;16.30;;
26014;SDS011;13793;55.388;37.844;2023-02-03T12:33:46;25.37;;;16.17;;
26014;SDS011;13793;55.388;37.844;2023-02-03T12:36:18;27.53;;;16.37;;
26014;SDS011;13793;55.388;37.844;2023-02-03T12:39:04;29.83;;;18.03;;
26014;SDS011;13793;55.388;37.844;2023-02-03T12:41:41;31.60;;;18.50;;
26014;SDS011;13793;55.388;37.844;2023-02-03T12:44:32;34.77;;;19.57;;
26014;SDS011;13793;55.388;37.844;2023-02-03T12:46:53;30.63;;;18.53;;
26014;SDS011;13793;55.388;37.844;2023-02-03T12:49:30;31.97;;;19.00;;
26014;SDS011;13793;55.388;37.844;2023-02-03T12:52:14;32.17;;;18.87;;
26014;SDS011;13793;55.388;37.844;2023-02-03T12:54:57;30.77;;;18.23;;
26014;SDS011;13793;55.388;37.844;2023-02-03T12:57:33;34.87;;;18.97;;
26014;SDS011;13793;55.388;37.844;2023-02-03T13:02:47;35.92;;;21.12;;
26014;SDS011;13793;55.388;37.844;2023-02-03T13:05:25;36.20;;;20.47;;
26014;SDS011;13793;55.388;37.844;2023-02-03T13:11:08;36.53;;;19.50;;
26014;SDS011;13793;55.388;37.844;2023-02-03T13:13:53;37.00;;;20.33;;
26014;SDS011;13793;55.388;37.844;2023-02-03T13:16:27;33.20;;;19.23;;
26014;SDS011;13793;55.388;37.844;2023-02-03T13:19:00;36.57;;;20.73;;
26014;SDS011;13793;55.388;37.844;2023-02-03T13:21:32;35.97;;;20.50;;
26014;SDS011;13793;55.388;37.844;2023-02-03T13:24:03;36.53;;;20.40;;
26014;SDS011;13793;55.388;37.844;2023-02-03T13:40:21;37.87;;;21.50;;
26014;SDS011;13793;55.388;37.844;2023-02-03T13:43:02;40.77;;;21.13;;
26014;SDS011;13793;55.388;37.844;2023-02-03T13:45:45;38.33;;;21.80;;
26014;SDS011;13793;55.388;37.844;2023-02-03T13:48:25;39.47;;;22.37;;
26014;SDS011;13793;55.388;37.844;2023-02-03T13:51:12;41.93;;;22.20;;
26014;SDS011;13793;55.388;37.844;2023-02-03T13:53:44;39.67;;;21.83;;
26014;SDS011;13793;55.388;37.844;2023-02-03T13:56:16;40.20;;;22.60;;
26014;SDS011;13793;55.388;37.844;2023-02-03T14:01:32;44.77;;;22.30;;
26014;SDS011;13793;55.388;37.844;2023-02-03T14:04:06;44.40;;;23.57;;
26014;SDS011;13793;55.388;37.844;2023-02-03T14:06:55;43.10;;;22.60;;
26014;SDS011;13793;55.388;37.844;2023-02-03T14:20:33;39.93;;;21.03;;
26014;SDS011;13793;55.388;37.844;2023-02-03T14:23:05;36.80;;;20.93;;
26014;SDS011;13793;55.388;37.844;2023-02-03T14:25:38;41.53;;;21.80;;
26014;SDS011;13793;55.388;37.844;2023-02-03T14:28:15;38.23;;;21.03;;
26014;SDS011;13793;55.388;37.844;2023-02-03T14:31:02;40.47;;;21.07;;
26014;SDS011;13793;55.388;37.844;2023-02-03T14:33:44;39.57;;;20.77;;
26014;SDS011;13793;55.388;37.844;2023-02-03T14:36:30;40.87;;;21.40;;
26014;SDS011;13793;55.388;37.844;2023-02-03T14:47:24;43.17;;;23.60;;
26014;SDS011;13793;55.388;37.844;2023-02-03T14:52:51;46.93;;;24.97;;
26014;SDS011;13793;55.388;37.844;2023-02-03T14:58:22;46.25;;;24.15;;
26014;SDS011;13793;55.388;37.844;2023-02-03T15:00:53;45.93;;;23.87;;
26014;SDS011;13793;55.388;37.844;2023-02-03T15:03:24;49.60;;;24.63;;
26014;SDS011;13793;55.388;37.844;2023-02-03T15:05:58;46.73;;;23.70;;
26014;SDS011;13793;55.388;37.844;2023-02-03T15:11:43;47.57;;;24.23;;
26014;SDS011;13793;55.388;37.844;2023-02-03T15:13:52;49.03;;;26.57;;
26014;SDS011;13793;55.388;37.844;2023-02-03T15:16:24;53.03;;;27.17;;
26014;SDS011;13793;55.388;37.844;2023-02-03T15:18:56;52.30;;;28.63;;
26014;SDS011;13793;55.388;37.844;2023-02-03T15:21:28;50.83;;;27.03;;
26014;SDS011;13793;55.388;37.844;2023-02-03T15:23:59;53.33;;;28.77;;
26014;SDS011;13793;55.388;37.844;2023-02-03T15:26:30;49.60;;;26.80;;
26014;SDS011;13793;55.388;37.844;2023-02-03T15:29:01;48.83;;;26.87;;
26014;SDS011;13793;55.388;37.844;2023-02-03T15:31:43;50.00;;;25.50;;
26014;SDS011;13793;55.388;37.844;2023-02-03T15:36:57;47.43;;;25.03;;
26014;SDS011;13793;55.388;37.844;2023-02-03T15:42:13;44.93;;;25.77;;
26014;SDS011;13793;55.388;37.844;2023-02-03T15:44:49;44.50;;;26.10;;
26014;SDS011;13793;55.388;37.844;2023-02-03T15:47:33;42.05;;;23.98;;
26014;SDS011;13793;55.388;37.844;2023-02-03T15:49:59;41.27;;;23.33;;
26014;SDS011;13793;55.388;37.844;2023-02-03T15:52:30;46.20;;;24.83;;
26014;SDS011;13793;55.388;37.844;2023-02-03T15:55:08;47.07;;;25.17;;
26014;SDS011;13793;55.388;37.844;2023-02-03T15:57:40;43.87;;;23.95;;
26014;SDS011;13793;55.388;37.844;2023-02-03T16:03:05;41.70;;;23.87;;
26014;SDS011;13793;55.388;37.844;2023-02-03T16:05:37;42.40;;;23.13;;
26014;SDS011;13793;55.388;37.844;2023-02-03T16:11:30;43.47;;;23.30;;
26014;SDS011;13793;55.388;37.844;2023-02-03T16:14:05;45.97;;;23.43;;
26014;SDS011;13793;55.388;37.844;2023-02-03T16:16:38;43.97;;;23.57;;
26014;SDS011;13793;55.388;37.844;2023-02-03T16:19:14;41.33;;;24.43;;
26014;SDS011;13793;55.388;37.844;2023-02-03T16:36:12;44.47;;;23.33;;
26014;SDS011;13793;55.388;37.844;2023-02-03T16:39:00;43.00;;;24.90;;
26014;SDS011;13793;55.388;37.844;2023-02-03T16:41:51;60.90;;;36.37;;
26014;SDS011;13793;55.388;37.844;2023-02-03T16:44:39;41.53;;;25.00;;
26014;SDS011;13793;55.388;37.844;2023-02-03T16:47:29;41.93;;;24.17;;
26014;SDS011;13793;55.388;37.844;2023-02-03T16:50:19;45.23;;;26.10;;
26014;SDS011;13793;55.388;37.844;2023-02-03T16:53:12;38.77;;;22.43;;
26014;SDS011;13793;55.388;37.844;2023-02-03T16:55:44;42.57;;;22.67;;
26014;SDS011;13793;55.388;37.844;2023-02-03T16:58:15;38.70;;;20.77;;
26014;SDS011;13793;55.388;37.844;2023-02-03T17:00:46;39.90;;;23.23;;
26014;SDS011;13793;55.388;37.844;2023-02-03T17:03:19;47.00;;;25.97;;
26014;SDS011;13793;55.388;37.844;2023-02-03T17:05:51;41.63;;;23.67;;
26014;SDS011;13793;55.388;37.844;2023-02-03T17:08:22;42.50;;;23.47;;
26014;SDS011;13793;55.388;37.844;2023-02-03T17:10:54;37.37;;;21.97;;
26014;SDS011;13793;55.388;37.844;2023-02-03T17:13:24;38.13;;;22.10;;
26014;SDS011;13793;55.388;37.844;2023-02-03T17:15:55;35.77;;;21.57;;
26014;SDS011;13793;55.388;37.844;2023-02-03T17:18:25;39.40;;;22.53;;
26014;SDS011;13793;55.388;37.844;2023-02-03T17:21:02;41.03;;;22.37;;